Time;durP1;ratioP1;P1;durP2;ratioP2;P2;SDS_P1;SDS_P2;PMS_P1;PMS_P2;Temp;Humidity;BMP_temperature;BMP_pressure;BME280_temperature;BME280_humidity;BME280_pressure;Samples;Min_cycle;Max_cycle;Signal;HPM_P1;HPM_P2
2023/07/04 00:01:21;;;;;;;5.07;3.37;;;13.80;99.90;;;;;;4986109;28;20472;-57
2023/07/04 00:03:52;;;;;;;4.83;3.70;;;13.80;99.90;;;;;;4994181;28;20485;-57
2023/07/04 00:06:21;;;;;;;6.00;3.37;;;13.70;99.90;;;;;;4991524;28;21129;-57
2023/07/04 00:08:50;;;;;;;4.77;4.07;;;13.70;99.90;;;;;;4984870;28;20492;-57
2023/07/04 00:11:20;;;;;;;3.27;2.97;;;13.70;99.90;;;;;;4995100;28;20468;-57
2023/07/04 00:13:50;;;;;;;4.87;3.50;;;13.70;99.90;;;;;;4991961;28;20507;-57
2023/07/04 00:16:19;;;;;;;5.73;3.77;;;13.60;99.90;;;;;;4993496;28;20997;-57
2023/07/04 00:18:47;;;;;;;4.80;3.17;;;13.60;99.90;;;;;;4990985;28;20489;-56
2023/07/04 00:21:15;;;;;;;3.57;3.10;;;13.60;99.90;;;;;;4985617;28;21240;-57
2023/07/04 00:23:46;;;;;;;5.97;3.60;;;13.60;99.90;;;;;;4984033;28;21162;-58
2023/07/04 00:26:17;;;;;;;4.83;3.40;;;13.60;99.90;;;;;;4992619;28;20563;-57
2023/07/04 00:28:45;;;;;;;4.27;3.70;;;13.60;99.90;;;;;;4994220;28;20469;-57
2023/07/04 00:31:17;;;;;;;4.20;3.70;;;13.60;99.90;;;;;;4986963;28;20496;-57
2023/07/04 00:33:47;;;;;;;6.43;3.93;;;13.50;99.90;;;;;;4988395;28;20520;-56
2023/07/04 00:36:17;;;;;;;5.70;3.50;;;13.60;99.90;;;;;;4996259;28;20877;-57
2023/07/04 00:38:48;;;;;;;7.60;3.60;;;13.60;99.90;;;;;;4993042;28;20526;-57
2023/07/04 00:41:21;;;;;;;3.73;2.70;;;13.60;99.90;;;;;;4996109;28;20514;-57
2023/07/04 00:43:58;;;;;;;3.43;2.70;;;13.70;99.90;;;;;;4996212;28;20488;-57
2023/07/04 00:46:38;;;;;;;4.13;3.30;;;13.70;99.90;;;;;;4999886;28;20501;-57
2023/07/04 00:49:22;;;;;;;3.13;2.93;;;13.70;99.90;;;;;;4997500;28;20525;-57
2023/07/04 00:52:04;;;;;;;4.17;2.93;;;13.70;99.90;;;;;;4995305;28;20498;-57
2023/07/04 00:54:36;;;;;;;5.23;2.90;;;13.60;99.90;;;;;;4993675;28;20475;-57
2023/07/04 00:57:06;;;;;;;6.60;2.93;;;13.70;99.90;;;;;;4998579;28;20476;-57
2023/07/04 00:59:43;;;;;;;8.93;3.23;;;13.60;99.90;;;;;;4995731;28;20865;-57
2023/07/04 01:02:15;;;;;;;4.30;3.10;;;13.60;99.90;;;;;;5001348;28;20600;-57
2023/07/04 01:04:44;;;;;;;3.67;2.87;;;13.60;99.90;;;;;;4999914;28;20464;-57
2023/07/04 01:07:22;;;;;;;4.07;3.00;;;13.60;99.90;;;;;;5000297;28;20554;-57
2023/07/04 01:09:55;;;;;;;3.40;3.10;;;13.60;99.90;;;;;;4992011;28;21044;-58
2023/07/04 01:12:29;;;;;;;3.20;2.53;;;13.60;99.90;;;;;;4995566;28;20500;-57
2023/07/04 01:14:59;;;;;;;2.60;2.40;;;13.60;99.90;;;;;;4998034;28;20487;-58
2023/07/04 01:17:29;;;;;;;3.70;2.53;;;13.60;99.90;;;;;;5001275;28;20982;-58
2023/07/04 01:20:00;;;;;;;3.77;3.23;;;13.50;99.90;;;;;;4995496;28;20485;-56
2023/07/04 01:22:34;;;;;;;2.53;2.33;;;13.50;99.90;;;;;;4996058;28;20588;-58
2023/07/04 01:25:14;;;;;;;3.60;2.60;;;13.50;99.90;;;;;;4994767;28;20476;-58
2023/07/04 01:27:45;;;;;;;4.80;2.63;;;13.50;99.90;;;;;;4999197;28;20563;-58
2023/07/04 01:30:14;;;;;;;3.80;2.57;;;13.40;99.90;;;;;;4997524;28;20530;-57
2023/07/04 01:32:43;;;;;;;4.97;2.47;;;13.40;99.90;;;;;;4993745;28;20576;-57
2023/07/04 01:35:13;;;;;;;3.90;2.30;;;13.40;99.90;;;;;;4992779;28;20468;-58
2023/07/04 01:37:41;;;;;;;3.70;2.43;;;13.40;99.90;;;;;;4994868;28;20465;-57
2023/07/04 01:40:10;;;;;;;3.03;2.50;;;13.30;99.90;;;;;;4991247;28;20669;-58
2023/07/04 01:42:38;;;;;;;3.77;2.50;;;13.30;99.90;;;;;;4994918;28;20912;-58
2023/07/04 01:45:09;;;;;;;4.03;2.67;;;13.40;99.90;;;;;;4994443;28;20481;-57
2023/07/04 01:47:38;;;;;;;2.80;2.60;;;13.40;99.90;;;;;;4995316;28;20543;-57
2023/07/04 01:50:09;;;;;;;2.80;2.60;;;13.40;99.90;;;;;;4991430;28;20496;-57
2023/07/04 01:52:38;;;;;;;3.10;2.30;;;13.40;99.90;;;;;;4995464;28;20491;-57
2023/07/04 01:55:07;;;;;;;3.20;2.10;;;13.40;99.90;;;;;;4989238;28;20556;-57
2023/07/04 01:57:35;;;;;;;2.57;2.37;;;13.30;99.90;;;;;;4997783;28;20531;-57
2023/07/04 02:00:05;;;;;;;2.47;2.27;;;13.30;99.90;;;;;;4993026;28;20897;-57
2023/07/04 02:02:35;;;;;;;4.30;2.10;;;13.30;99.90;;;;;;4995435;28;20512;-57
2023/07/04 02:05:04;;;;;;;3.50;2.10;;;13.30;99.90;;;;;;4994281;28;20552;-57
2023/07/04 02:07:32;;;;;;;4.87;2.70;;;13.20;99.90;;;;;;4994611;28;20564;-56
2023/07/04 02:10:00;;;;;;;3.77;2.07;;;13.20;99.90;;;;;;4993260;28;20575;-57
2023/07/04 02:12:28;;;;;;;2.53;1.93;;;13.20;99.90;;;;;;4994606;28;20580;-57
2023/07/04 02:14:56;;;;;;;2.80;2.33;;;13.10;99.90;;;;;;4990608;28;20563;-57
2023/07/04 02:17:24;;;;;;;3.20;2.00;;;13.10;99.90;;;;;;4990209;28;20476;-57
2023/07/04 02:19:54;;;;;;;2.33;1.80;;;13.10;99.90;;;;;;4993265;28;20911;-56
2023/07/04 02:22:22;;;;;;;2.10;1.90;;;13.00;99.90;;;;;;4989512;28;20540;-57
2023/07/04 02:24:50;;;;;;;4.30;2.60;;;13.00;99.90;;;;;;4997631;28;20878;-58
2023/07/04 02:27:18;;;;;;;2.47;2.23;;;13.00;99.90;;;;;;4994920;28;20499;-58
2023/07/04 02:29:47;;;;;;;6.93;2.40;;;13.00;99.90;;;;;;4984477;28;20500;-58
2023/07/04 02:32:15;;;;;;;3.30;2.27;;;13.00;99.90;;;;;;4989399;28;20563;-58
2023/07/04 02:34:43;;;;;;;2.30;2.00;;;12.90;99.90;;;;;;4993308;28;20500;-58
2023/07/04 02:37:13;;;;;;;2.27;2.10;;;12.90;99.90;;;;;;4991816;28;20610;-58
2023/07/04 02:39:41;;;;;;;3.97;2.03;;;12.90;99.90;;;;;;4990271;28;20496;-58
2023/07/04 02:42:09;;;;;;;4.60;2.50;;;12.90;99.90;;;;;;4983246;28;20930;-57
2023/07/04 02:44:37;;;;;;;4.23;2.13;;;12.80;99.90;;;;;;4994130;28;20469;-58
2023/07/04 02:47:06;;;;;;;2.97;2.20;;;12.80;99.90;;;;;;4993957;28;20563;-58
2023/07/04 02:49:35;;;;;;;3.83;2.20;;;12.80;99.90;;;;;;4990750;28;20473;-58
2023/07/04 02:52:03;;;;;;;4.20;2.10;;;12.80;99.90;;;;;;4987599;28;20494;-58
2023/07/04 02:54:33;;;;;;;1.87;1.60;;;12.80;99.90;;;;;;4981742;28;20479;-58
2023/07/04 02:57:01;;;;;;;3.10;2.20;;;12.70;99.90;;;;;;4980634;28;20476;-58
2023/07/04 02:59:29;;;;;;;3.60;2.10;;;12.70;99.90;;;;;;4989194;28;20567;-58
2023/07/04 03:01:57;;;;;;;3.70;2.10;;;12.70;99.90;;;;;;4991036;28;20559;-58
2023/07/04 03:04:25;;;;;;;5.17;2.40;;;12.70;99.90;;;;;;4990436;28;20499;-58
2023/07/04 03:06:53;;;;;;;3.70;1.63;;;12.70;99.90;;;;;;4997664;28;20499;-58
2023/07/04 03:09:21;;;;;;;4.40;1.80;;;12.80;99.90;;;;;;4990067;28;20476;-58
2023/07/04 03:11:51;;;;;;;2.77;2.00;;;12.80;99.90;;;;;;4993005;28;20587;-58
2023/07/04 03:14:19;;;;;;;6.50;2.87;;;12.80;99.90;;;;;;4996006;28;20484;-59
2023/07/04 03:16:47;;;;;;;3.40;2.50;;;12.70;99.90;;;;;;4997516;28;20555;-58
2023/07/04 03:19:15;;;;;;;4.13;2.10;;;12.70;99.90;;;;;;4997737;28;20998;-58
2023/07/04 03:21:43;;;;;;;4.97;2.50;;;12.70;99.90;;;;;;4994440;28;20492;-57
2023/07/04 03:24:11;;;;;;;4.33;3.10;;;12.70;99.90;;;;;;4996218;28;20464;-57
2023/07/04 03:26:40;;;;;;;3.40;2.13;;;12.60;99.90;;;;;;4991307;28;20510;-58
2023/07/04 03:29:10;;;;;;;4.50;2.50;;;12.70;99.90;;;;;;4993759;28;20479;-59
2023/07/04 03:31:38;;;;;;;4.50;2.60;;;12.70;99.90;;;;;;4996773;28;20496;-58
2023/07/04 03:34:06;;;;;;;5.60;3.57;;;12.70;99.90;;;;;;4994896;28;20579;-58
2023/07/04 03:36:34;;;;;;;5.30;2.83;;;12.70;99.90;;;;;;4999007;28;20465;-58
2023/07/04 03:39:02;;;;;;;6.20;3.30;;;12.70;99.90;;;;;;4998053;28;20757;-58
2023/07/04 03:41:31;;;;;;;5.13;2.97;;;12.70;99.90;;;;;;4994895;28;20494;-57
2023/07/04 03:44:00;;;;;;;4.83;3.20;;;12.70;99.90;;;;;;4990419;28;20495;-58
2023/07/04 03:46:29;;;;;;;5.00;3.03;;;12.70;99.90;;;;;;4984002;28;20491;-59
2023/07/04 03:48:57;;;;;;;4.20;3.43;;;12.70;99.90;;;;;;4987624;28;20594;-58
2023/07/04 03:51:26;;;;;;;4.80;3.17;;;12.70;99.90;;;;;;4986777;28;20479;-58
2023/07/04 03:53:54;;;;;;;6.17;3.63;;;12.70;99.90;;;;;;4991226;28;20489;-58
2023/07/04 03:56:22;;;;;;;6.37;4.03;;;12.70;99.90;;;;;;4992075;28;20511;-57
2023/07/04 03:58:49;;;;;;;5.30;3.23;;;12.70;99.90;;;;;;4995723;28;20503;-57
2023/07/04 04:01:18;;;;;;;5.40;3.80;;;12.70;99.90;;;;;;4989201;28;21286;-57
2023/07/04 04:03:47;;;;;;;3.87;3.50;;;12.70;99.90;;;;;;4993711;28;20516;-57
2023/07/04 04:06:15;;;;;;;7.27;4.10;;;12.70;99.90;;;;;;4998238;28;20564;-57
2023/07/04 04:08:43;;;;;;;4.27;3.47;;;12.80;99.90;;;;;;4991786;28;20993;-57
2023/07/04 04:11:11;;;;;;;5.90;3.97;;;12.80;99.90;;;;;;4990495;28;20570;-57
2023/07/04 04:13:39;;;;;;;8.20;3.70;;;12.80;99.90;;;;;;4992781;28;20495;-57
2023/07/04 04:16:07;;;;;;;6.23;4.23;;;12.80;99.90;;;;;;4987232;28;20771;-57
2023/07/04 04:18:35;;;;;;;6.30;4.70;;;12.80;99.90;;;;;;4988076;28;20501;-57
2023/07/04 04:21:05;;;;;;;4.60;4.10;;;12.90;99.90;;;;;;4997627;28;20579;-58
2023/07/04 04:23:33;;;;;;;5.20;3.53;;;13.00;99.90;;;;;;4996700;28;21363;-58
2023/07/04 04:26:01;;;;;;;5.90;4.13;;;13.00;99.90;;;;;;4996088;28;20508;-58
2023/07/04 04:28:29;;;;;;;6.03;4.40;;;13.00;99.90;;;;;;4993944;28;20555;-57
2023/07/04 04:30:57;;;;;;;5.93;4.40;;;13.10;99.90;;;;;;4990130;28;21447;-58
2023/07/04 04:33:25;;;;;;;6.90;4.00;;;13.10;99.90;;;;;;4992547;28;21046;-58
2023/07/04 04:35:53;;;;;;;5.07;4.20;;;13.10;99.90;;;;;;4996330;28;22500;-58
2023/07/04 04:38:23;;;;;;;5.20;4.17;;;13.10;99.90;;;;;;4993826;28;20984;-58
2023/07/04 04:40:51;;;;;;;7.33;4.83;;;13.10;99.90;;;;;;4999749;28;20882;-58
2023/07/04 04:43:19;;;;;;;4.93;4.43;;;13.20;99.90;;;;;;4992863;28;20557;-57
2023/07/04 04:45:47;;;;;;;5.27;4.37;;;13.10;99.90;;;;;;4995530;28;20502;-58
2023/07/04 04:48:19;;;;;;;5.20;3.60;;;13.10;99.90;;;;;;5005710;28;20479;-57
2023/07/04 04:50:47;;;;;;;4.30;3.80;;;13.10;99.90;;;;;;4991592;28;20556;-56
2023/07/04 04:53:15;;;;;;;5.73;3.97;;;13.10;99.90;;;;;;4996411;28;20491;-56
2023/07/04 04:55:45;;;;;;;4.57;3.67;;;13.20;99.90;;;;;;4993159;28;20539;-55
2023/07/04 04:58:13;;;;;;;4.43;3.90;;;13.20;99.90;;;;;;4999519;28;20476;-56
2023/07/04 05:00:41;;;;;;;4.90;4.00;;;13.20;99.90;;;;;;5003863;28;20559;-57
2023/07/04 05:03:09;;;;;;;4.37;3.87;;;13.30;99.90;;;;;;4996196;28;20499;-56
2023/07/04 05:05:37;;;;;;;6.13;3.80;;;13.30;99.90;;;;;;4992568;28;20476;-55
2023/07/04 05:08:05;;;;;;;4.27;3.40;;;13.40;99.90;;;;;;4989682;28;20497;-56
2023/07/04 05:10:33;;;;;;;5.53;3.57;;;13.40;99.90;;;;;;4992668;28;20502;-57
2023/07/04 05:13:02;;;;;;;6.03;3.87;;;13.50;99.90;;;;;;4983195;28;20597;-57
2023/07/04 05:15:30;;;;;;;5.50;3.70;;;13.50;99.90;;;;;;4994323;28;20547;-55
2023/07/04 05:17:58;;;;;;;6.10;3.53;;;13.50;99.90;;;;;;4991344;28;20986;-56
2023/07/04 05:20:27;;;;;;;5.43;3.27;;;13.60;99.90;;;;;;4991013;28;20468;-57
2023/07/04 05:22:56;;;;;;;9.23;3.70;;;13.60;99.90;;;;;;5000618;28;20935;-56
2023/07/04 05:25:24;;;;;;;7.10;3.80;;;13.70;99.90;;;;;;4991105;28;21086;-57
2023/07/04 05:27:52;;;;;;;6.07;3.17;;;13.70;99.90;;;;;;4989160;28;20488;-57
2023/07/04 05:30:24;;;;;;;4.73;3.13;;;13.80;99.90;;;;;;4992267;28;20566;-56
2023/07/04 05:32:52;;;;;;;4.70;3.23;;;13.80;99.90;;;;;;4995482;28;20941;-57
2023/07/04 05:35:20;;;;;;;4.13;3.57;;;13.90;99.90;;;;;;4995766;28;20464;-56
2023/07/04 05:37:48;;;;;;;5.43;3.20;;;14.00;99.90;;;;;;4994389;28;20469;-57
2023/07/04 05:40:17;;;;;;;6.00;3.80;;;14.00;99.90;;;;;;4989657;28;20477;-56
2023/07/04 05:42:45;;;;;;;6.87;3.43;;;14.00;99.90;;;;;;4978052;28;20612;-57
2023/07/04 05:45:13;;;;;;;6.63;4.20;;;14.10;99.90;;;;;;4991167;28;20579;-57
2023/07/04 05:47:42;;;;;;;5.00;3.70;;;14.20;99.90;;;;;;4987845;28;22146;-56
2023/07/04 05:50:11;;;;;;;4.70;3.23;;;14.20;99.90;;;;;;4991063;28;20496;-57
2023/07/04 05:52:38;;;;;;;8.80;3.50;;;14.20;99.90;;;;;;4994742;28;20916;-57
2023/07/04 05:55:08;;;;;;;7.93;4.20;;;14.30;99.90;;;;;;4986356;28;20574;-57
2023/07/04 05:57:35;;;;;;;4.13;3.30;;;14.30;99.90;;;;;;4989271;28;20559;-57
2023/07/04 06:00:06;;;;;;;6.10;4.07;;;14.40;99.90;;;;;;4992897;28;20568;-57
2023/07/04 06:02:34;;;;;;;5.03;3.80;;;14.40;99.90;;;;;;4985841;28;20592;-57
2023/07/04 06:05:03;;;;;;;6.80;4.30;;;14.50;99.90;;;;;;4989930;28;20476;-57
2023/07/04 06:07:32;;;;;;;6.27;3.90;;;14.50;99.90;;;;;;4989920;28;20481;-57
2023/07/04 06:09:59;;;;;;;4.10;3.30;;;14.50;99.90;;;;;;4986448;28;20584;-57
2023/07/04 06:12:30;;;;;;;7.90;4.20;;;14.60;99.90;;;;;;4995270;28;21008;-57
2023/07/04 06:14:59;;;;;;;5.13;3.70;;;14.60;99.90;;;;;;4997591;28;20547;-56
2023/07/04 06:17:27;;;;;;;5.70;3.30;;;14.70;99.90;;;;;;4985099;28;20478;-58
2023/07/04 06:19:55;;;;;;;4.73;3.13;;;14.80;99.90;;;;;;4994671;28;20473;-61
2023/07/04 06:22:24;;;;;;;8.43;4.13;;;14.80;99.90;;;;;;4997956;28;20480;-58
2023/07/04 06:24:52;;;;;;;5.23;3.50;;;14.80;99.90;;;;;;4994157;28;20667;-58
2023/07/04 06:27:21;;;;;;;9.97;4.87;;;14.90;99.90;;;;;;4988792;28;20476;-58
2023/07/04 06:29:53;;;;;;;5.77;3.90;;;15.00;99.90;;;;;;4997335;28;20554;-58
2023/07/04 06:32:21;;;;;;;6.33;3.03;;;15.00;99.90;;;;;;4995264;28;20535;-58
2023/07/04 06:34:49;;;;;;;4.57;3.13;;;15.10;99.90;;;;;;4994481;28;20480;-58
2023/07/04 06:37:17;;;;;;;4.80;3.47;;;15.10;99.90;;;;;;4994019;28;20576;-58
2023/07/04 06:39:47;;;;;;;6.20;3.60;;;15.20;99.90;;;;;;4987337;28;20500;-58
2023/07/04 06:42:15;;;;;;;4.67;2.97;;;15.30;99.90;;;;;;4996610;28;21200;-59
2023/07/04 06:44:45;;;;;;;5.37;3.37;;;15.30;99.90;;;;;;4984805;28;20469;-58
2023/07/04 06:47:13;;;;;;;4.33;3.10;;;15.40;99.90;;;;;;4993939;28;21087;-58
2023/07/04 06:49:41;;;;;;;5.50;2.80;;;15.50;99.90;;;;;;4974786;28;20472;-57
2023/07/04 06:52:09;;;;;;;4.20;3.00;;;15.60;99.90;;;;;;4987385;28;20488;-59
2023/07/04 06:54:37;;;;;;;4.80;3.20;;;15.50;99.90;;;;;;4994744;28;20476;-58
2023/07/04 06:57:07;;;;;;;5.27;3.33;;;15.70;99.90;;;;;;4995539;28;21642;-61
2023/07/04 06:59:35;;;;;;;7.03;2.90;;;15.70;99.90;;;;;;4984851;28;20611;-59
2023/07/04 07:02:04;;;;;;;5.10;2.90;;;15.80;99.90;;;;;;4986764;28;21059;-58
2023/07/04 07:04:32;;;;;;;4.50;2.97;;;15.80;99.90;;;;;;4992362;28;20464;-60
2023/07/04 07:07:00;;;;;;;4.50;2.70;;;15.80;99.90;;;;;;4987569;28;20469;-56
2023/07/04 07:09:30;;;;;;;4.50;2.90;;;15.80;99.90;;;;;;4998003;28;20527;-58
2023/07/04 07:11:58;;;;;;;4.93;3.07;;;15.90;99.90;;;;;;4993511;28;20495;-59
2023/07/04 07:14:29;;;;;;;4.80;3.10;;;15.90;99.90;;;;;;4986270;28;20496;-59
2023/07/04 07:16:57;;;;;;;4.13;3.33;;;16.00;99.90;;;;;;4996108;28;21222;-60
2023/07/04 07:19:26;;;;;;;4.00;3.50;;;16.00;99.90;;;;;;4994729;28;21016;-57
2023/07/04 07:21:54;;;;;;;4.10;3.33;;;16.10;99.90;;;;;;4993490;28;20516;-59
2023/07/04 07:24:21;;;;;;;3.90;3.20;;;16.20;99.90;;;;;;4993440;28;20511;-58
2023/07/04 07:26:49;;;;;;;5.83;3.43;;;16.20;99.90;;;;;;4989088;28;20905;-59
2023/07/04 07:29:19;;;;;;;4.97;3.40;;;16.30;99.90;;;;;;4993200;28;20478;-58
2023/07/04 07:31:50;;;;;;;3.90;3.30;;;16.30;99.90;;;;;;4989992;28;21004;-57
2023/07/04 07:34:18;;;;;;;4.77;3.80;;;16.40;99.90;;;;;;4995849;28;20468;-59
2023/07/04 07:36:47;;;;;;;4.10;3.33;;;16.40;99.90;;;;;;4990342;28;20561;-59
2023/07/04 07:39:17;;;;;;;3.93;3.63;;;16.50;99.90;;;;;;4999890;28;20504;-58
2023/07/04 07:41:48;;;;;;;4.43;3.40;;;16.60;99.90;;;;;;4996426;28;20495;-60
2023/07/04 07:44:17;;;;;;;4.83;3.53;;;16.60;99.90;;;;;;4992934;28;20583;-61
2023/07/04 07:46:46;;;;;;;6.73;3.40;;;16.60;99.90;;;;;;4998028;28;20590;-58
2023/07/04 07:49:16;;;;;;;4.63;3.37;;;16.70;99.90;;;;;;5000041;28;20476;-60
2023/07/04 07:51:44;;;;;;;4.10;3.70;;;16.70;99.90;;;;;;4995516;28;20584;-58
2023/07/04 07:54:14;;;;;;;4.30;3.90;;;16.70;99.90;;;;;;4998231;28;20573;-60
2023/07/04 07:56:45;;;;;;;4.30;3.43;;;16.70;99.90;;;;;;4998314;28;20492;-57
2023/07/04 07:59:13;;;;;;;4.40;4.00;;;16.80;99.90;;;;;;4991324;28;20991;-59
2023/07/04 08:01:41;;;;;;;8.83;3.37;;;16.80;99.90;;;;;;4994565;28;20498;-58
2023/07/04 08:04:09;;;;;;;4.03;3.63;;;16.80;99.90;;;;;;4997440;28;20491;-60
2023/07/04 08:06:45;;;;;;;5.33;3.90;;;16.90;99.90;;;;;;4991316;28;20508;-58
2023/07/04 08:09:19;;;;;;;3.90;3.43;;;17.00;99.90;;;;;;4988269;28;20581;-56
2023/07/04 08:11:48;;;;;;;4.00;3.60;;;17.00;99.90;;;;;;4994959;28;21013;-61
2023/07/04 08:14:19;;;;;;;5.43;3.40;;;17.00;99.90;;;;;;5001501;28;20464;-58
2023/07/04 08:16:49;;;;;;;4.43;4.00;;;17.10;99.90;;;;;;4997940;28;20496;-58
2023/07/04 08:19:19;;;;;;;4.37;3.70;;;17.10;99.90;;;;;;5000103;28;20559;-59
2023/07/04 08:21:49;;;;;;;5.23;3.50;;;17.10;99.90;;;;;;5001013;28;20527;-59
2023/07/04 08:24:18;;;;;;;5.20;3.70;;;17.10;99.90;;;;;;4999181;28;20491;-61
2023/07/04 08:26:47;;;;;;;3.27;2.97;;;17.10;99.90;;;;;;4995944;28;20479;-60
2023/07/04 08:29:15;;;;;;;3.43;3.13;;;17.10;99.90;;;;;;4996839;28;20468;-59
2023/07/04 08:31:43;;;;;;;6.43;3.40;;;17.10;99.90;;;;;;4997570;28;21067;-61
2023/07/04 08:34:12;;;;;;;3.80;3.30;;;17.10;99.90;;;;;;4999261;28;20472;-59
2023/07/04 08:36:41;;;;;;;3.63;3.33;;;17.30;99.90;;;;;;4991654;28;20481;-60
2023/07/04 08:39:10;;;;;;;5.50;4.00;;;17.40;99.90;;;;;;4989264;28;20483;-59
2023/07/04 08:41:45;;;;;;;6.00;3.63;;;17.50;99.90;;;;;;4994042;28;20575;-59
2023/07/04 08:44:18;;;;;;;4.03;3.23;;;17.50;99.90;;;;;;4996593;28;20546;-59
2023/07/04 08:46:50;;;;;;;3.27;2.97;;;17.60;99.90;;;;;;4994795;28;20499;-60
2023/07/04 08:49:39;;;;;;;3.47;3.13;;;17.50;99.90;;;;;;5000242;28;20556;-59
2023/07/04 08:52:11;;;;;;;3.70;3.27;;;17.60;99.90;;;;;;4993918;28;20488;-57
2023/07/04 08:54:40;;;;;;;2.97;2.70;;;17.60;99.90;;;;;;5001391;28;20464;-57
2023/07/04 08:57:19;;;;;;;3.10;2.53;;;17.70;99.90;;;;;;4997006;28;20526;-58
2023/07/04 08:59:50;;;;;;;3.00;2.50;;;17.70;99.90;;;;;;5002160;28;20468;-58
2023/07/04 09:02:37;;;;;;;3.17;2.37;;;17.70;99.90;;;;;;4996732;28;20558;-58
2023/07/04 09:05:13;;;;;;;2.43;2.23;;;17.70;99.90;;;;;;4994545;28;20584;-58
2023/07/04 09:07:47;;;;;;;2.30;2.10;;;17.60;99.90;;;;;;5000779;28;20507;-58
2023/07/04 09:10:30;;;;;;;2.80;2.03;;;17.50;99.90;;;;;;4994483;28;21053;-58
2023/07/04 09:12:59;;;;;;;4.70;3.00;;;17.60;99.90;;;;;;4998310;28;20571;-58
2023/07/04 09:15:32;;;;;;;3.47;2.30;;;17.70;99.90;;;;;;5000590;28;20527;-58
2023/07/04 09:18:07;;;;;;;3.67;2.87;;;17.80;99.90;;;;;;5001902;28;20479;-58
2023/07/04 09:20:57;;;;;;;2.30;2.10;;;17.90;99.90;;;;;;4993855;28;20480;-60
2023/07/04 09:23:25;;;;;;;3.00;2.20;;;18.00;99.90;;;;;;4999299;28;21303;-60
2023/07/04 09:25:57;;;;;;;2.17;1.80;;;18.10;99.90;;;;;;4994979;28;20507;-60
2023/07/04 09:28:26;;;;;;;2.57;2.03;;;17.90;99.90;;;;;;4985401;28;20476;-60
2023/07/04 09:30:58;;;;;;;2.50;2.30;;;17.90;99.90;;;;;;4995351;28;20503;-60
2023/07/04 09:33:28;;;;;;;3.97;2.07;;;17.80;99.90;;;;;;4994920;28;21082;-60
2023/07/04 09:35:57;;;;;;;4.17;2.60;;;17.80;99.90;;;;;;4997831;28;20914;-60
2023/07/04 09:38:25;;;;;;;4.90;2.40;;;17.80;99.90;;;;;;4994555;28;20969;-60
2023/07/04 09:40:55;;;;;;;3.50;2.20;;;17.80;99.90;;;;;;4997242;28;20500;-60
2023/07/04 09:43:30;;;;;;;2.40;2.20;;;17.80;99.90;;;;;;4989536;28;20917;-59
2023/07/04 09:46:14;;;;;;;2.40;2.20;;;17.70;99.90;;;;;;4994110;28;20481;-60
2023/07/04 09:48:42;;;;;;;2.07;1.90;;;17.70;99.90;;;;;;4994231;28;20538;-60
2023/07/04 09:51:21;;;;;;;2.77;2.40;;;17.80;99.90;;;;;;4994364;28;20503;-60
2023/07/04 09:53:50;;;;;;;4.50;2.37;;;18.00;99.90;;;;;;4993921;28;20611;-60
2023/07/04 09:56:27;;;;;;;3.83;2.17;;;18.30;99.90;;;;;;4990075;28;20564;-59
2023/07/04 09:59:11;;;;;;;3.03;1.83;;;18.40;99.90;;;;;;4995144;28;20559;-59
2023/07/04 10:01:40;;;;;;;1.87;1.77;;;18.60;99.90;;;;;;4997466;28;20467;-59
2023/07/04 10:04:10;;;;;;;7.00;2.50;;;18.70;99.90;;;;;;4990725;28;20520;-60
2023/07/04 10:06:38;;;;;;;2.77;2.00;;;18.90;99.90;;;;;;4998857;28;20464;-59
2023/07/04 10:09:17;;;;;;;2.17;1.60;;;18.90;99.90;;;;;;4995074;28;20473;-59
2023/07/04 10:11:49;;;;;;;4.50;2.10;;;19.00;99.90;;;;;;4984343;28;21179;-58
2023/07/04 10:14:18;;;;;;;3.83;2.30;;;19.00;99.90;;;;;;5000070;28;20560;-60
2023/07/04 10:16:50;;;;;;;2.30;1.90;;;19.00;99.90;;;;;;4989837;28;20477;-57
2023/07/04 10:19:21;;;;;;;3.40;1.90;;;19.00;99.90;;;;;;4997901;28;20465;-58
2023/07/04 10:21:52;;;;;;;3.17;2.10;;;19.00;99.90;;;;;;4997948;28;21068;-58
2023/07/04 10:24:21;;;;;;;3.00;2.00;;;19.10;99.90;;;;;;4998586;28;21048;-58
2023/07/04 10:26:58;;;;;;;1.50;1.40;;;19.10;99.90;;;;;;4992872;28;20500;-59
2023/07/04 10:29:32;;;;;;;1.40;1.30;;;19.10;99.90;;;;;;4999609;28;20526;-59
2023/07/04 10:32:06;;;;;;;1.90;1.70;;;19.30;99.90;;;;;;4999040;28;21003;-59
2023/07/04 10:34:36;;;;;;;1.40;1.30;;;19.40;99.90;;;;;;4994887;28;20855;-59
2023/07/04 10:37:06;;;;;;;2.53;1.40;;;19.50;99.90;;;;;;5000447;28;20902;-58
2023/07/04 10:39:38;;;;;;;2.10;1.63;;;19.60;99.90;;;;;;5000111;28;20509;-59
2023/07/04 10:42:14;;;;;;;3.87;1.60;;;19.60;99.90;;;;;;4997995;28;20515;-59
2023/07/04 10:44:47;;;;;;;2.17;1.60;;;19.60;99.90;;;;;;4997391;28;20578;-58
2023/07/04 10:47:24;;;;;;;3.70;1.30;;;19.80;99.90;;;;;;4999720;28;20906;-58
2023/07/04 10:49:57;;;;;;;5.13;1.40;;;19.80;99.90;;;;;;4994362;28;20477;-58
2023/07/04 10:52:30;;;;;;;1.40;1.30;;;19.90;99.90;;;;;;4993374;28;20504;-59
2023/07/04 10:54:58;;;;;;;2.07;1.17;;;20.00;99.90;;;;;;4995526;28;20544;-58
2023/07/04 10:57:32;;;;;;;1.90;1.37;;;20.00;99.90;;;;;;4997589;28;20469;-59
2023/07/04 11:00:14;;;;;;;2.83;1.33;;;19.90;99.90;;;;;;4993091;28;20572;-58
2023/07/04 11:02:47;;;;;;;2.23;1.43;;;19.90;99.90;;;;;;4996739;28;20505;-59
2023/07/04 11:05:23;;;;;;;1.30;1.20;;;20.00;99.90;;;;;;4996809;28;20496;-59
2023/07/04 11:07:53;;;;;;;2.10;1.50;;;20.00;99.90;;;;;;4992687;28;20997;-57
2023/07/04 11:10:25;;;;;;;2.20;1.20;;;20.20;99.90;;;;;;4998275;28;21032;-59
2023/07/04 11:12:56;;;;;;;1.20;1.10;;;20.10;99.90;;;;;;4996765;28;21149;-59
2023/07/04 11:15:30;;;;;;;1.53;1.17;;;20.00;99.90;;;;;;4994479;28;20550;-60
2023/07/04 11:17:58;;;;;;;2.13;0.90;;;19.70;99.90;;;;;;4987802;28;21573;-58
2023/07/04 11:20:49;;;;;;;0.80;0.70;;;19.50;99.90;;;;;;4992504;28;20479;-60
2023/07/04 11:23:20;;;;;;;2.30;1.00;;;19.20;99.90;;;;;;4990626;28;21658;-59
2023/07/04 11:26:04;;;;;;;2.57;1.00;;;19.10;99.90;;;;;;4996064;28;20591;-58
2023/07/04 11:28:49;;;;;;;4.67;1.33;;;19.00;99.90;;;;;;4978286;28;20489;-58
2023/07/04 11:31:30;;;;;;;2.03;1.47;;;19.00;99.90;;;;;;4977376;28;20483;-59
2023/07/04 11:34:04;;;;;;;1.37;0.97;;;18.90;99.90;;;;;;4986212;28;20491;-58
2023/07/04 11:36:36;;;;;;;0.70;0.70;;;18.80;99.90;;;;;;4981849;28;20502;-62
2023/07/04 11:39:06;;;;;;;1.00;0.90;;;18.70;99.90;;;;;;4993222;28;21002;-64
2023/07/04 11:41:38;;;;;;;1.17;1.00;;;18.60;99.90;;;;;;4988154;28;20515;-63
2023/07/04 11:44:16;;;;;;;0.87;0.80;;;18.50;99.90;;;;;;4989845;28;20583;-62
2023/07/04 11:46:58;;;;;;;1.30;1.00;;;18.30;99.90;;;;;;4995850;28;20494;-61
2023/07/04 11:49:27;;;;;;;1.40;1.00;;;18.00;99.90;;;;;;4992067;28;20482;-62
2023/07/04 11:52:06;;;;;;;1.50;0.80;;;17.90;99.90;;;;;;4988946;28;20986;-62
2023/07/04 11:54:34;;;;;;;1.27;0.90;;;17.70;99.90;;;;;;4991473;28;20479;-61
2023/07/04 11:57:06;;;;;;;1.33;1.10;;;17.70;99.90;;;;;;4993114;28;21037;-65
2023/07/04 11:59:46;;;;;;;0.97;0.97;;;17.60;99.90;;;;;;4992087;28;20460;-64
2023/07/04 12:02:26;;;;;;;1.17;1.07;;;17.50;99.90;;;;;;4995018;28;20538;-64
2023/07/04 12:04:55;;;;;;;2.50;1.10;;;17.40;99.90;;;;;;4990153;28;20465;-65
2023/07/04 12:07:33;;;;;;;2.10;1.30;;;17.30;99.90;;;;;;4985961;28;20484;-60
2023/07/04 12:10:10;;;;;;;1.37;1.10;;;17.00;99.90;;;;;;4994698;28;21011;-60
2023/07/04 12:12:38;;;;;;;1.47;1.10;;;16.90;99.90;;;;;;4984418;28;20590;-60
2023/07/04 12:15:10;;;;;;;1.57;1.07;;;16.90;99.90;;;;;;4992368;28;20535;-60
2023/07/04 12:17:40;;;;;;;1.20;1.10;;;16.90;99.90;;;;;;4985291;28;20522;-65
2023/07/04 12:20:11;;;;;;;1.67;1.30;;;17.00;99.90;;;;;;4988886;28;20464;-65
2023/07/04 12:22:45;;;;;;;0.90;0.90;;;17.10;99.90;;;;;;4994028;28;20491;-62
2023/07/04 12:25:21;;;;;;;3.50;1.07;;;17.10;99.90;;;;;;4993040;28;20595;-59
2023/07/04 12:27:50;;;;;;;1.57;1.00;;;17.20;99.90;;;;;;4989039;28;20461;-62
2023/07/04 12:30:19;;;;;;;1.17;0.90;;;17.20;99.90;;;;;;4993234;28;20477;-62
2023/07/04 12:32:51;;;;;;;1.97;1.20;;;17.10;99.90;;;;;;4989572;28;20599;-59
2023/07/04 12:35:20;;;;;;;1.40;0.90;;;17.00;99.90;;;;;;4989366;28;20749;-61
2023/07/04 12:37:51;;;;;;;1.20;1.00;;;17.00;99.90;;;;;;4994189;28;20464;-64
2023/07/04 12:40:23;;;;;;;1.90;0.93;;;16.80;99.90;;;;;;4991374;28;20469;-64
2023/07/04 12:42:53;;;;;;;2.90;1.20;;;16.70;99.90;;;;;;4992993;28;20492;-61
2023/07/04 12:45:25;;;;;;;1.23;1.13;;;16.60;99.90;;;;;;4997069;28;20496;-63
2023/07/04 12:48:00;;;;;;;0.97;0.87;;;16.50;99.90;;;;;;4995347;28;20547;-59
2023/07/04 12:50:31;;;;;;;1.90;1.53;;;16.40;99.90;;;;;;4993414;28;20478;-58
2023/07/04 12:53:01;;;;;;;3.03;1.20;;;16.20;99.90;;;;;;4991586;28;21584;-58
2023/07/04 12:55:32;;;;;;;1.50;1.30;;;16.10;99.90;;;;;;4991471;28;20524;-60
2023/07/04 12:58:04;;;;;;;2.30;1.00;;;15.90;99.90;;;;;;4992289;28;20468;-59
2023/07/04 13:00:36;;;;;;;0.93;0.93;;;15.80;99.90;;;;;;4988546;28;20472;-59
2023/07/04 13:03:11;;;;;;;1.60;1.13;;;15.60;99.90;;;;;;4995042;28;20504;-59
2023/07/04 13:05:42;;;;;;;2.37;1.30;;;15.30;99.90;;;;;;4996346;28;20944;-58